Time;durP1;ratioP1;P1;durP2;ratioP2;P2;SDS_P1;SDS_P2;PMS_P1;PMS_P2;Temp;Humidity;BMP_temperature;BMP_pressure;BME280_temperature;BME280_humidity;BME280_pressure;Samples;Min_cycle;Max_cycle;Signal;HPM_P1;HPM_P2
2021/06/02 00:00:19;;;;;;;3.40;3.10;;;18.50;66.80;;;;;;5069462;28;20377;-61
2021/06/02 00:02:52;;;;;;;4.22;3.20;;;18.50;68.00;;;;;;5070649;28;20368;-61
2021/06/02 00:05:19;;;;;;;4.85;3.20;;;18.40;67.40;;;;;;5070714;28;20025;-61
2021/06/02 00:07:47;;;;;;;4.03;3.55;;;18.30;67.90;;;;;;5070196;28;20055;-60
2021/06/02 00:10:14;;;;;;;5.90;3.60;;;18.20;68.80;;;;;;5070725;28;20024;-60
2021/06/02 00:12:40;;;;;;;4.95;3.60;;;18.20;70.00;;;;;;5070272;28;20036;-60
2021/06/02 00:15:08;;;;;;;4.40;3.88;;;18.20;71.30;;;;;;5070763;28;20096;-60
2021/06/02 00:17:34;;;;;;;4.85;3.67;;;18.10;73.00;;;;;;5070281;28;20020;-60
2021/06/02 00:19:59;;;;;;;6.20;3.17;;;18.10;74.60;;;;;;5069023;28;20032;-60
2021/06/02 00:22:25;;;;;;;7.10;3.38;;;17.90;77.70;;;;;;5070416;28;20075;-60
2021/06/02 00:24:51;;;;;;;7.80;3.97;;;17.80;80.40;;;;;;5070578;28;20062;-61
2021/06/02 00:27:17;;;;;;;7.18;3.47;;;17.80;83.10;;;;;;5072450;28;20478;-61
2021/06/02 00:29:44;;;;;;;4.32;3.90;;;17.70;87.00;;;;;;5073810;28;20536;-61
2021/06/02 00:32:12;;;;;;;6.35;4.18;;;17.50;90.40;;;;;;5072576;28;20166;-61
2021/06/02 00:34:38;;;;;;;5.28;3.55;;;17.40;92.30;;;;;;5072721;28;20381;-60
2021/06/02 00:37:06;;;;;;;5.60;4.20;;;17.30;93.70;;;;;;5073653;28;20392;-60
2021/06/02 00:39:33;;;;;;;4.05;3.65;;;17.30;95.00;;;;;;5074213;28;20100;-60
2021/06/02 00:41:59;;;;;;;5.93;3.67;;;17.20;95.60;;;;;;5073850;28;20020;-60
2021/06/02 00:44:26;;;;;;;4.32;3.47;;;17.40;96.40;;;;;;5073977;28;20082;-61
2021/06/02 00:46:52;;;;;;;6.38;3.80;;;17.40;96.20;;;;;;5074151;28;20044;-61
2021/06/02 00:49:24;;;;;;;6.47;3.75;;;17.30;97.50;;;;;;5072339;28;20370;-61
2021/06/02 00:51:57;;;;;;;5.30;3.45;;;17.40;98.60;;;;;;5072631;28;20582;-61
2021/06/02 00:54:25;;;;;;;4.93;3.60;;;17.40;98.10;;;;;;5073879;28;20051;-61
2021/06/02 00:56:55;;;;;;;6.25;3.85;;;17.30;99.70;;;;;;5073652;28;20013;-60
2021/06/02 01:00:05;;;;;;;6.13;3.88;;;17.20;99.90;;;;;;5073662;28;20024;-61
2021/06/02 01:02:33;;;;;;;5.38;3.67;;;17.10;99.90;;;;;;5050742;28;20033;-61
2021/06/02 01:04:59;;;;;;;5.18;4.20;;;17.00;99.90;;;;;;5070462;28;20418;-61
2021/06/02 01:07:25;;;;;;;4.53;3.83;;;17.10;99.90;;;;;;5073186;28;20036;-61
2021/06/02 01:09:58;;;;;;;8.98;4.00;;;17.10;99.90;;;;;;5073168;28;20063;-61
2021/06/02 01:12:26;;;;;;;7.43;3.65;;;17.00;99.90;;;;;;5073488;28;20107;-61
2021/06/02 01:14:54;;;;;;;6.32;3.80;;;17.00;99.90;;;;;;5073359;28;20023;-61
2021/06/02 01:17:22;;;;;;;4.88;3.88;;;16.90;99.90;;;;;;5073138;28;20028;-61
2021/06/02 01:19:51;;;;;;;7.57;4.13;;;16.90;99.90;;;;;;5073166;28;20444;-61
2021/06/02 01:22:17;;;;;;;6.72;3.83;;;16.90;99.90;;;;;;5071686;28;20098;-61
2021/06/02 01:24:43;;;;;;;8.63;4.75;;;16.80;99.90;;;;;;5073103;28;20028;-61
2021/06/02 01:27:11;;;;;;;6.05;3.97;;;16.70;99.90;;;;;;5071640;28;20029;-61
2021/06/02 01:29:47;;;;;;;4.70;4.30;;;16.80;99.90;;;;;;5072823;28;20045;-61
2021/06/02 01:32:28;;;;;;;5.80;4.72;;;16.70;99.90;;;;;;5072907;28;20086;-61
2021/06/02 01:35:29;;;;;;;5.35;4.22;;;16.60;99.90;;;;;;5071746;28;20016;-60
2021/06/02 01:38:13;;;;;;;10.93;4.57;;;16.60;99.90;;;;;;5072327;28;20099;-61
2021/06/02 01:41:00;;;;;;;8.32;4.28;;;16.50;99.90;;;;;;5071527;28;20435;-61
2021/06/02 01:44:07;;;;;;;6.40;4.60;;;16.50;99.90;;;;;;5072721;28;20035;-61
2021/06/02 01:47:00;;;;;;;5.28;4.35;;;16.50;99.90;;;;;;5013628;28;20029;-61
2021/06/02 01:50:03;;;;;;;6.20;4.68;;;16.50;99.90;;;;;;5069649;28;20428;-61
2021/06/02 01:52:41;;;;;;;4.55;4.18;;;16.50;99.90;;;;;;5071348;28;20027;-61
2021/06/02 01:55:47;;;;;;;8.85;5.43;;;16.40;99.90;;;;;;5072616;28;20177;-61
2021/06/02 01:58:35;;;;;;;5.50;4.85;;;16.30;99.90;;;;;;5070968;28;20025;-61
2021/06/02 02:01:06;;;;;;;6.55;4.65;;;16.20;99.90;;;;;;5070971;28;20035;-61
2021/06/02 02:04:08;;;;;;;9.63;4.72;;;16.30;99.90;;;;;;5072320;28;20032;-61
2021/06/02 02:06:53;;;;;;;5.43;4.93;;;16.30;99.90;;;;;;5072313;28;20448;-61
2021/06/02 02:09:28;;;;;;;5.25;4.63;;;16.00;99.90;;;;;;5072657;28;20107;-61
2021/06/02 02:12:20;;;;;;;6.00;4.60;;;15.90;99.90;;;;;;5072154;28;20051;-61
2021/06/02 02:15:01;;;;;;;6.43;4.35;;;15.90;99.90;;;;;;5060643;28;20102;-61
2021/06/02 02:17:54;;;;;;;6.65;4.80;;;15.80;99.90;;;;;;5071899;28;20052;-61
2021/06/02 02:20:41;;;;;;;;;;;15.80;99.90;;;;;;5071110;28;20115;-61
2021/06/02 02:23:31;;;;;;;10.35;4.68;;;15.70;99.90;;;;;;5072245;28;20388;-61
2021/06/02 02:26:26;;;;;;;12.52;5.30;;;15.60;99.90;;;;;;5071926;28;20078;-61
2021/06/02 02:29:29;;;;;;;7.30;5.13;;;15.70;99.90;;;;;;5061768;28;20053;-61
2021/06/02 02:32:14;;;;;;;7.53;5.60;;;15.80;99.90;;;;;;5072160;28;20021;-61
2021/06/02 02:34:57;;;;;;;7.80;4.93;;;15.70;99.90;;;;;;5071812;28;20039;-60
2021/06/02 02:37:52;;;;;;;7.53;5.43;;;15.60;99.90;;;;;;5071304;28;20516;-60
2021/06/02 02:40:25;;;;;;;6.78;5.53;;;15.50;99.90;;;;;;5017674;28;20068;-60
2021/06/02 02:43:16;;;;;;;6.15;5.47;;;15.50;99.90;;;;;;5070191;28;20063;-60
2021/06/02 02:45:44;;;;;;;7.80;5.57;;;15.50;99.90;;;;;;5071558;28;20089;-60
2021/06/02 02:48:36;;;;;;;10.80;5.75;;;15.50;99.90;;;;;;5071274;28;20028;-61
2021/06/02 02:51:02;;;;;;;7.20;5.63;;;15.60;99.90;;;;;;5071146;28;20070;-61
2021/06/02 02:53:48;;;;;;;7.55;5.35;;;15.50;99.90;;;;;;5071403;28;20021;-61
2021/06/02 02:56:30;;;;;;;8.80;5.75;;;15.30;99.90;;;;;;5070310;28;20017;-61
2021/06/02 02:59:22;;;;;;;6.15;5.20;;;15.30;99.90;;;;;;5071275;28;20020;-61
2021/06/02 03:02:28;;;;;;;7.22;5.97;;;15.30;99.90;;;;;;5070026;28;20052;-61
2021/06/02 03:04:57;;;;;;;9.55;6.20;;;15.20;99.90;;;;;;5048680;28;20025;-61
2021/06/02 03:07:24;;;;;;;7.35;5.38;;;15.30;99.90;;;;;;5067115;28;20496;-61
2021/06/02 03:09:56;;;;;;;6.60;5.70;;;15.30;99.90;;;;;;5071085;28;20075;-62
2021/06/02 03:12:59;;;;;;;7.90;5.75;;;15.20;99.90;;;;;;5069914;28;20572;-61
2021/06/02 03:15:48;;;;;;;9.27;5.80;;;15.20;99.90;;;;;;5070917;28;20411;-61
2021/06/02 03:18:42;;;;;;;7.78;5.38;;;15.20;99.90;;;;;;5069621;28;20132;-61
2021/06/02 03:21:13;;;;;;;12.13;5.65;;;15.10;99.90;;;;;;5070950;28;20025;-61
2021/06/02 03:23:57;;;;;;;8.95;6.22;;;15.00;99.90;;;;;;5071052;28;20070;-61
2021/06/02 03:26:27;;;;;;;9.90;6.30;;;15.00;99.90;;;;;;5070700;28;20107;-61
2021/06/02 03:29:10;;;;;;;7.95;5.55;;;15.10;99.90;;;;;;5070578;28;20036;-61
2021/06/02 03:31:55;;;;;;;8.88;5.70;;;14.90;99.90;;;;;;5071138;28;20024;-61
2021/06/02 03:34:46;;;;;;;12.23;6.13;;;15.10;99.90;;;;;;5070919;28;20099;-60
2021/06/02 03:37:50;;;;;;;7.70;6.30;;;15.00;99.90;;;;;;5069156;28;20021;-61
2021/06/02 03:40:24;;;;;;;;;;;14.90;99.90;;;;;;5071312;28;20073;-61
2021/06/02 03:43:31;;;;;;;8.25;6.00;;;14.90;99.90;;;;;;5069792;28;19911;-61
2021/06/02 03:46:11;;;;;;;10.30;5.82;;;14.90;99.90;;;;;;5067413;28;20059;-61
2021/06/02 03:49:04;;;;;;;8.63;6.20;;;14.90;99.90;;;;;;5070677;28;20111;-61
2021/06/02 03:51:30;;;;;;;8.23;5.47;;;14.90;99.90;;;;;;5070529;28;20028;-61
2021/06/02 03:54:11;;;;;;;6.93;6.20;;;14.80;99.90;;;;;;5070735;28;20350;-61
2021/06/02 03:56:58;;;;;;;8.73;5.38;;;14.80;99.90;;;;;;5069417;28;20025;-61
2021/06/02 03:59:33;;;;;;;9.98;5.22;;;14.80;99.90;;;;;;5070343;28;20024;-61
2021/06/02 04:02:08;;;;;;;8.25;6.63;;;14.80;99.90;;;;;;5073842;28;20020;-61
2021/06/02 04:05:02;;;;;;;6.30;5.70;;;14.80;99.90;;;;;;5073374;28;20388;-61
2021/06/02 04:07:40;;;;;;;8.98;6.10;;;14.90;99.90;;;;;;5074208;28;20154;-61
2021/06/02 04:10:12;;;;;;;7.40;6.25;;;15.00;99.90;;;;;;5074333;28;20078;-61
2021/06/02 04:12:49;;;;;;;6.65;5.78;;;14.90;99.90;;;;;;5073195;28;20024;-61
2021/06/02 04:15:16;;;;;;;13.93;7.00;;;14.70;99.90;;;;;;5073124;28;20031;-61
2021/06/02 04:17:48;;;;;;;8.10;6.10;;;14.80;99.90;;;;;;5072906;28;20051;-61
2021/06/02 04:20:16;;;;;;;12.33;6.40;;;14.80;99.90;;;;;;5073052;28;20045;-61
2021/06/02 04:22:46;;;;;;;7.70;6.25;;;14.90;99.90;;;;;;5074213;28;20063;-61
2021/06/02 04:25:14;;;;;;;13.82;6.53;;;14.90;99.90;;;;;;5074511;28;20017;-61
2021/06/02 04:27:40;;;;;;;10.38;6.85;;;15.00;99.90;;;;;;5073809;28;20056;-61
2021/06/02 04:30:07;;;;;;;12.00;10.32;;;15.00;99.90;;;;;;5074306;28;20067;-61
2021/06/02 04:32:41;;;;;;;8.05;6.55;;;15.10;99.90;;;;;;5073986;28;20568;-61
2021/06/02 04:35:08;;;;;;;9.50;6.38;;;15.10;99.90;;;;;;5072844;28;20027;-60
2021/06/02 04:37:35;;;;;;;10.38;7.00;;;15.20;99.90;;;;;;5073635;28;20031;-61
2021/06/02 04:40:05;;;;;;;10.00;6.30;;;15.20;99.90;;;;;;5073766;28;20021;-61
2021/06/02 04:42:34;;;;;;;9.27;6.10;;;15.20;99.90;;;;;;5072356;28;20051;-61
2021/06/02 04:45:01;;;;;;;11.63;6.32;;;15.30;99.90;;;;;;5072602;28;20032;-61
2021/06/02 04:47:28;;;;;;;9.55;6.63;;;15.40;99.90;;;;;;5073814;28;20024;-61
2021/06/02 04:49:57;;;;;;;13.57;6.72;;;15.40;99.90;;;;;;5073550;28;20358;-61
2021/06/02 04:52:31;;;;;;;12.68;6.95;;;15.50;99.90;;;;;;5073389;28;20025;-61
2021/06/02 04:55:06;;;;;;;13.80;6.50;;;15.80;99.90;;;;;;5073933;28;20501;-61
2021/06/02 04:57:49;;;;;;;8.25;6.45;;;15.80;99.90;;;;;;5073747;28;20024;-61
2021/06/02 05:00:45;;;;;;;12.05;6.10;;;15.90;99.90;;;;;;5073439;28;20473;-61
2021/06/02 05:03:33;;;;;;;10.90;6.18;;;15.90;99.90;;;;;;5073821;28;20024;-61
2021/06/02 05:06:20;;;;;;;16.20;7.10;;;16.10;99.90;;;;;;5073232;28;20056;-61
2021/06/02 05:09:07;;;;;;;11.95;6.38;;;16.20;99.90;;;;;;5073572;28;20483;-61
2021/06/02 05:11:54;;;;;;;10.20;6.25;;;16.20;99.90;;;;;;5073559;28;20021;-60
2021/06/02 05:14:26;;;;;;;12.65;6.57;;;16.30;99.90;;;;;;5073673;28;20050;-61
2021/06/02 05:17:28;;;;;;;6.00;5.40;;;16.40;99.90;;;;;;5073701;28;20020;-61
2021/06/02 05:20:22;;;;;;;10.38;6.10;;;16.50;99.90;;;;;;5073375;28;20025;-61
2021/06/02 05:23:23;;;;;;;9.20;5.70;;;16.40;99.90;;;;;;5073345;28;20082;-61
2021/06/02 05:26:10;;;;;;;8.00;5.82;;;16.60;99.90;;;;;;5071372;28;20040;-61
2021/06/02 05:28:56;;;;;;;7.95;5.57;;;16.70;99.90;;;;;;5072751;28;20079;-61
2021/06/02 05:31:46;;;;;;;11.20;6.05;;;17.10;99.90;;;;;;5073009;28;20028;-61
2021/06/02 05:34:33;;;;;;;10.13;5.60;;;17.20;99.90;;;;;;5072902;28;20043;-61
2021/06/02 05:37:40;;;;;;;8.15;5.88;;;17.40;99.90;;;;;;5072627;28;20051;-60
2021/06/02 05:40:17;;;;;;;9.70;5.35;;;17.50;99.90;;;;;;5069527;28;20033;-60
2021/06/02 05:43:04;;;;;;;18.85;5.90;;;17.60;99.90;;;;;;5069531;28;20024;-61
2021/06/02 05:45:47;;;;;;;7.70;5.43;;;17.60;99.90;;;;;;5055612;28;20025;-61
2021/06/02 05:48:49;;;;;;;7.03;5.57;;;17.80;99.90;;;;;;5052953;28;20670;-61
2021/06/02 05:51:40;;;;;;;8.85;5.53;;;18.10;99.90;;;;;;5052868;28;20047;-61
2021/06/02 05:54:27;;;;;;;7.85;4.88;;;18.00;99.90;;;;;;5056365;28;20021;-61
2021/06/02 05:57:45;;;;;;;8.55;5.70;;;18.00;99.70;;;;;;5063292;28;20027;-61
2021/06/02 06:00:22;;;;;;;8.73;4.85;;;18.30;99.00;;;;;;5040498;28;20129;-61
2021/06/02 06:02:53;;;;;;;11.18;4.78;;;18.20;98.50;;;;;;5061351;28;20276;-61
2021/06/02 06:05:28;;;;;;;10.32;5.63;;;18.20;99.10;;;;;;5060737;28;20072;-61
2021/06/02 06:08:32;;;;;;;8.80;5.30;;;18.30;98.80;;;;;;5052606;28;20434;-61
2021/06/02 06:11:16;;;;;;;;;;;18.50;98.50;;;;;;5057919;28;20112;-61
2021/06/02 06:14:19;;;;;;;13.35;6.03;;;18.70;98.40;;;;;;5052138;28;19994;-61
2021/06/02 06:17:07;;;;;;;9.60;6.05;;;18.70;98.10;;;;;;5066309;28;20440;-61
2021/06/02 06:19:59;;;;;;;8.50;5.60;;;18.70;98.60;;;;;;5044565;28;20058;-60
2021/06/02 06:22:53;;;;;;;14.60;6.33;;;19.00;98.30;;;;;;5056707;28;20329;-60
2021/06/02 06:25:33;;;;;;;10.18;6.18;;;19.20;97.90;;;;;;5070574;28;20024;-61
2021/06/02 06:28:07;;;;;;;8.52;5.65;;;19.20;98.30;;;;;;5062165;28;20048;-61
2021/06/02 06:30:36;;;;;;;9.93;5.80;;;19.20;97.70;;;;;;5064873;28;20405;-62
2021/06/02 06:33:15;;;;;;;14.48;6.13;;;19.50;97.60;;;;;;5070738;28;20020;-61
2021/06/02 06:35:43;;;;;;;8.13;5.35;;;19.60;97.40;;;;;;5050953;28;20025;-61
2021/06/02 06:38:14;;;;;;;7.65;5.38;;;19.80;97.50;;;;;;5058242;28;20557;-60
2021/06/02 06:40:40;;;;;;;8.65;4.95;;;20.00;97.70;;;;;;5052581;28;20032;-60
2021/06/02 06:43:09;;;;;;;5.25;4.32;;;21.50;94.90;;;;;;5060383;28;20028;-60
2021/06/02 06:45:38;;;;;;;7.57;4.68;;;23.40;88.40;;;;;;5056685;28;20032;-60
2021/06/02 06:48:21;;;;;;;5.85;4.07;;;25.30;77.00;;;;;;5059864;28;20025;-60
2021/06/02 06:50:50;;;;;;;8.25;4.13;;;27.00;67.00;;;;;;5047207;28;20033;-60
2021/06/02 06:53:17;;;;;;;11.80;3.90;;;27.40;59.60;;;;;;5051066;28;20389;-60
2021/06/02 06:55:45;;;;;;;7.47;3.00;;;27.60;57.30;;;;;;5066282;28;20503;-60
2021/06/02 06:58:12;;;;;;;8.63;3.53;;;28.00;54.50;;;;;;5065127;28;20033;-60
2021/06/02 07:00:38;;;;;;;6.28;3.45;;;27.80;53.80;;;;;;5061390;28;20028;-60
2021/06/02 07:03:06;;;;;;;9.13;3.25;;;27.70;54.30;;;;;;5063185;28;20028;-60
2021/06/02 07:05:32;;;;;;;7.40;3.30;;;28.40;53.20;;;;;;5054843;28;20044;-60
2021/06/02 07:07:59;;;;;;;11.43;3.35;;;28.20;51.80;;;;;;5060811;28;20032;-61
2021/06/02 07:10:25;;;;;;;7.28;3.28;;;28.90;50.50;;;;;;5057922;28;20024;-59
2021/06/02 07:12:51;;;;;;;8.20;3.55;;;30.00;49.10;;;;;;5053447;28;20027;-61
2021/06/02 07:15:17;;;;;;;6.43;3.10;;;30.70;47.50;;;;;;5061354;28;20299;-60
2021/06/02 07:17:46;;;;;;;4.80;2.90;;;30.50;45.60;;;;;;5061160;28;20032;-60
2021/06/02 07:20:21;;;;;;;8.88;3.13;;;30.90;44.50;;;;;;5065451;28;20161;-60
2021/06/02 07:22:49;;;;;;;7.60;2.90;;;30.70;46.20;;;;;;5068258;28;20036;-60
2021/06/02 07:25:26;;;;;;;5.40;3.20;;;30.70;46.10;;;;;;5074374;28;20059;-60
2021/06/02 07:27:54;;;;;;;5.95;2.80;;;30.40;46.60;;;;;;5069435;28;20123;-60
2021/06/02 07:30:22;;;;;;;6.63;2.63;;;30.80;45.60;;;;;;5086072;28;20012;-60
2021/06/02 07:32:48;;;;;;;6.57;2.60;;;30.50;46.10;;;;;;5087282;28;20100;-60
2021/06/02 07:35:14;;;;;;;4.88;2.70;;;30.80;45.30;;;;;;5076865;28;20021;-61
2021/06/02 07:37:40;;;;;;;7.55;3.03;;;31.10;44.60;;;;;;5070917;28;20028;-60
2021/06/02 07:40:08;;;;;;;10.10;2.97;;;31.30;43.90;;;;;;5070740;28;20025;-60
2021/06/02 07:42:34;;;;;;;7.03;2.83;;;31.10;43.80;;;;;;5072272;28;20048;-61
2021/06/02 07:44:59;;;;;;;6.05;2.75;;;31.60;43.10;;;;;;5072250;28;20064;-61
2021/06/02 07:47:25;;;;;;;4.10;2.55;;;31.80;42.70;;;;;;5080377;28;20127;-61
2021/06/02 07:49:51;;;;;;;8.05;2.72;;;31.50;42.50;;;;;;5075424;28;20032;-61
2021/06/02 07:52:17;;;;;;;11.50;2.70;;;30.90;42.30;;;;;;5065629;28;20025;-60
2021/06/02 07:54:43;;;;;;;6.85;3.00;;;31.30;42.60;;;;;;5068687;28;20381;-60
2021/06/02 07:57:08;;;;;;;8.57;2.47;;;31.70;41.90;;;;;;5068160;28;20032;-61
2021/06/02 07:59:34;;;;;;;6.22;2.50;;;32.10;40.20;;;;;;5055943;28;20033;-61
2021/06/02 08:02:02;;;;;;;7.18;2.47;;;32.50;39.60;;;;;;5071941;28;20057;-61
2021/06/02 08:04:29;;;;;;;5.60;2.47;;;32.80;40.40;;;;;;5069301;28;20337;-61
2021/06/02 08:06:56;;;;;;;5.43;2.40;;;32.90;39.30;;;;;;5071554;28;20036;-61
2021/06/02 08:09:22;;;;;;;8.13;2.40;;;32.80;39.30;;;;;;5062573;28;21806;-61
2021/06/02 08:11:48;;;;;;;7.05;2.90;;;32.00;40.50;;;;;;5063589;28;20028;-62
2021/06/02 08:14:16;;;;;;;9.75;3.50;;;32.30;40.30;;;;;;5091279;28;20071;-62
2021/06/02 08:16:43;;;;;;;9.55;2.90;;;32.50;39.30;;;;;;5086564;28;20059;-62
2021/06/02 08:19:08;;;;;;;12.32;3.28;;;32.50;39.10;;;;;;5104438;28;20012;-62
2021/06/02 08:24:08;;;;;;;14.65;4.13;;;33.00;38.60;;;;;;5068416;28;20547;-79
2021/06/02 08:26:35;;;;;;;6.18;2.50;;;33.00;39.10;;;;;;5062425;28;20033;-80
2021/06/02 08:29:01;;;;;;;12.73;3.33;;;32.70;39.40;;;;;;5064481;28;20048;-80
2021/06/02 08:31:27;;;;;;;8.27;2.22;;;32.60;40.40;;;;;;5063039;28;20020;-79
2021/06/02 08:33:52;;;;;;;2.95;2.35;;;33.40;38.40;;;;;;5060518;28;20047;-78
2021/06/02 08:36:18;;;;;;;10.10;2.22;;;34.10;38.10;;;;;;5050625;28;20426;-78
2021/06/02 08:38:46;;;;;;;6.32;2.40;;;34.20;38.00;;;;;;5059090;28;20039;-79
2021/06/02 08:41:12;;;;;;;4.05;2.20;;;33.30;38.60;;;;;;5055864;28;20615;-78
2021/06/02 08:43:38;;;;;;;4.28;2.05;;;33.60;38.60;;;;;;5066571;28;20032;-77
2021/06/02 08:46:04;;;;;;;7.68;2.42;;;33.00;39.70;;;;;;5066829;28;20048;-78
2021/06/02 08:48:29;;;;;;;5.15;1.95;;;33.70;38.20;;;;;;5064091;28;20028;-78
2021/06/02 08:50:55;;;;;;;7.22;2.17;;;34.20;35.00;;;;;;5060559;28;20037;-78
2021/06/02 08:53:21;;;;;;;5.30;2.13;;;33.50;35.60;;;;;;5067497;28;20025;-77
2021/06/02 08:55:48;;;;;;;7.95;2.00;;;33.40;34.90;;;;;;5065040;28;20082;-78
2021/06/02 08:58:19;;;;;;;7.53;1.90;;;32.60;36.90;;;;;;5067619;28;20473;-78
2021/06/02 09:00:45;;;;;;;10.20;2.30;;;33.10;37.30;;;;;;5065344;28;20039;-78
2021/06/02 09:03:11;;;;;;;4.03;1.98;;;33.50;36.80;;;;;;5073282;28;20055;-78
2021/06/02 09:05:37;;;;;;;4.78;1.80;;;33.40;32.80;;;;;;5070745;28;20086;-78
2021/06/02 09:08:03;;;;;;;9.02;2.35;;;33.00;34.00;;;;;;5071693;28;20075;-79
2021/06/02 09:10:29;;;;;;;4.25;1.92;;;33.30;35.90;;;;;;5059754;28;20774;-79
2021/06/02 09:12:59;;;;;;;5.05;2.10;;;33.00;35.20;;;;;;5064991;28;20033;-80
2021/06/02 09:15:31;;;;;;;6.60;2.08;;;33.30;35.80;;;;;;5068056;28;20016;-80
2021/06/02 09:17:59;;;;;;;8.68;1.98;;;33.50;36.60;;;;;;5074811;28;20032;-80
2021/06/02 09:20:45;;;;;;;7.93;2.10;;;33.80;33.50;;;;;;5074989;28;20025;-81
2021/06/02 09:23:38;;;;;;;5.72;1.98;;;33.80;34.70;;;;;;5063818;28;20158;-80
2021/06/02 09:26:03;;;;;;;;;;;33.30;33.50;;;;;;5069504;28;20013;-79
2021/06/02 09:29:09;;;;;;;8.85;1.95;;;32.10;35.10;;;;;;5072909;28;19935;-79
2021/06/02 09:31:39;;;;;;;5.45;1.83;;;31.40;36.80;;;;;;5021663;28;20021;-79
2021/06/02 09:34:27;;;;;;;5.93;2.13;;;31.60;36.80;;;;;;5057767;28;20116;-79
2021/06/02 09:37:03;;;;;;;6.13;2.20;;;31.80;37.90;;;;;;5075067;28;20056;-80
2021/06/02 09:39:30;;;;;;;8.18;2.17;;;31.90;34.70;;;;;;5069223;28;20083;-80
2021/06/02 09:42:00;;;;;;;3.67;1.90;;;32.60;34.50;;;;;;5064652;28;20043;-79
2021/06/02 09:44:30;;;;;;;7.95;1.70;;;32.20;35.10;;;;;;5071050;28;20111;-80
2021/06/02 09:47:10;;;;;;;6.43;2.20;;;32.90;35.90;;;;;;5068927;28;20028;-80
2021/06/02 09:49:51;;;;;;;3.95;1.90;;;33.50;35.90;;;;;;5070041;28;20033;-80
2021/06/02 09:52:18;;;;;;;6.07;2.20;;;33.00;34.40;;;;;;5065650;28;20031;-80
2021/06/02 09:54:45;;;;;;;4.88;1.98;;;33.40;35.70;;;;;;5064570;28;20021;-80
2021/06/02 09:57:15;;;;;;;4.38;1.98;;;33.70;34.80;;;;;;5068972;28;20094;-81
2021/06/02 10:00:01;;;;;;;3.95;1.73;;;33.80;33.30;;;;;;5066173;28;20028;-81
2021/06/02 10:02:27;;;;;;;3.65;1.67;;;33.00;33.50;;;;;;5072622;28;20647;-80
2021/06/02 10:05:05;;;;;;;2.03;1.50;;;32.30;34.90;;;;;;5080743;28;20032;-80
2021/06/02 10:07:34;;;;;;;6.90;1.83;;;32.40;34.10;;;;;;5076802;28;20056;-87
2021/06/02 10:10:08;;;;;;;11.30;2.17;;;33.30;33.70;;;;;;5066011;28;20036;-89
2021/06/02 10:12:34;;;;;;;5.03;1.92;;;34.00;33.50;;;;;;5073297;28;20020;-89
2021/06/02 10:15:00;;;;;;;2.72;1.95;;;32.80;33.20;;;;;;5074340;28;20207;-88
2021/06/02 10:17:31;;;;;;;4.43;1.90;;;32.70;34.10;;;;;;5066414;28;20025;-88
2021/06/02 10:20:13;;;;;;;4.10;1.90;;;32.50;33.20;;;;;;5072783;28;20024;-87
2021/06/02 10:22:40;;;;;;;2.78;1.73;;;32.30;33.60;;;;;;5069601;28;20115;-85
2021/06/02 10:25:09;;;;;;;1.90;1.67;;;32.30;33.00;;;;;;5076871;28;20044;-87
2021/06/02 10:27:35;;;;;;;3.78;1.63;;;32.70;35.30;;;;;;5067253;28;20124;-87
2021/06/02 10:30:01;;;;;;;5.35;2.35;;;32.40;34.40;;;;;;5069775;28;20678;-87
2021/06/02 10:32:27;;;;;;;3.28;1.80;;;33.30;35.00;;;;;;5073031;28;20043;-89
2021/06/02 10:34:54;;;;;;;2.38;1.70;;;33.40;33.40;;;;;;5068361;28;20017;-89
2021/06/02 10:37:22;;;;;;;7.65;1.88;;;32.70;32.60;;;;;;5071289;28;20032;-89
2021/06/02 10:40:07;;;;;;;4.57;1.80;;;33.10;32.40;;;;;;5074291;28;20031;-88
2021/06/02 10:42:43;;;;;;;2.63;1.60;;;33.60;32.10;;;;;;5072220;28;20029;-89
2021/06/02 10:45:28;;;;;;;3.15;1.60;;;34.20;32.60;;;;;;5065018;28;20028;-89
2021/06/02 10:48:02;;;;;;;4.25;1.60;;;34.10;31.80;;;;;;5063077;28;20029;-89
2021/06/02 10:50:30;;;;;;;6.30;1.70;;;34.20;30.30;;;;;;5070644;28;20033;-89
2021/06/02 10:52:56;;;;;;;9.32;1.60;;;34.60;30.00;;;;;;5057177;28;20049;-89
2021/06/02 10:55:35;;;;;;;4.38;1.88;;;34.60;30.60;;;;;;5067201;28;20035;-88
2021/06/02 10:58:27;;;;;;;5.43;1.88;;;33.90;30.70;;;;;;5070708;28;20028;-88
2021/06/02 11:01:04;;;;;;;2.75;1.60;;;34.00;31.50;;;;;;5064295;28;20380;-89
2021/06/02 11:03:31;;;;;;;1.75;1.65;;;33.00;32.50;;;;;;5070092;28;20004;-89
2021/06/02 11:05:58;;;;;;;2.28;1.70;;;32.60;33.20;;;;;;5071842;28;20094;-88
2021/06/02 11:08:52;;;;;;;5.00;1.70;;;33.20;32.90;;;;;;5056125;28;20025;-89
2021/06/02 11:11:31;;;;;;;5.13;1.85;;;33.80;32.00;;;;;;5071657;28;20020;-89
2021/06/02 11:14:15;;;;;;;2.13;1.40;;;33.90;31.50;;;;;;5058895;28;20019;-89
2021/06/02 11:16:42;;;;;;;3.97;1.50;;;34.10;32.00;;;;;;5072646;28;20091;-89
2021/06/02 11:19:16;;;;;;;2.13;1.35;;;34.30;31.70;;;;;;5074021;28;20438;-88
2021/06/02 11:21:56;;;;;;;3.10;1.70;;;34.30;31.00;;;;;;5052962;28;20025;-88
2021/06/02 11:24:34;;;;;;;2.20;1.60;;;34.90;30.20;;;;;;5063232;28;20119;-89
2021/06/02 11:29:50;;;;;;;4.35;1.35;;;33.90;31.50;;;;;;5074892;28;20094;-89
2021/06/02 11:32:21;;;;;;;3.80;1.75;;;33.20;32.60;;;;;;5073092;28;20020;-89
2021/06/02 11:34:52;;;;;;;2.08;1.60;;;33.70;32.80;;;;;;5073522;28;20101;-89
2021/06/02 11:37:20;;;;;;;6.10;1.50;;;34.80;32.80;;;;;;5073911;28;20063;-89
2021/06/02 11:39:50;;;;;;;1.70;1.55;;;34.40;31.90;;;;;;5073893;28;20020;-89
2021/06/02 11:42:43;;;;;;;6.00;1.55;;;33.90;33.00;;;;;;5072414;28;20016;-89
2021/06/02 11:45:17;;;;;;;4.07;1.40;;;34.20;33.20;;;;;;5073731;28;20043;-89
2021/06/02 11:47:45;;;;;;;3.08;1.45;;;34.30;32.30;;;;;;5073576;28;20116;-89
2021/06/02 11:50:16;;;;;;;2.70;1.65;;;34.70;33.70;;;;;;5073205;28;20024;-89
2021/06/02 11:52:43;;;;;;;2.15;1.40;;;34.30;32.70;;;;;;5072845;28;20016;-89
2021/06/02 11:55:14;;;;;;;2.63;1.70;;;34.60;32.50;;;;;;5075206;28;20415;-89
2021/06/02 11:57:44;;;;;;;3.27;1.67;;;34.50;31.90;;;;;;5072961;28;20016;-90
2021/06/02 12:00:17;;;;;;;3.80;1.52;;;34.20;32.00;;;;;;5071577;28;20028;-89
2021/06/02 12:02:45;;;;;;;3.10;1.63;;;34.60;32.20;;;;;;5073516;28;20032;-90
2021/06/02 12:05:32;;;;;;;3.50;1.60;;;35.00;32.30;;;;;;5073317;28;20036;-89
2021/06/02 12:07:59;;;;;;;3.47;1.52;;;34.00;32.90;;;;;;5073106;28;20039;-89
2021/06/02 12:10:31;;;;;;;4.88;1.73;;;33.20;34.00;;;;;;5073876;28;20115;-89
2021/06/02 12:12:57;;;;;;;;;;;33.90;33.90;;;;;;5074931;28;20599;-89
2021/06/02 12:15:24;;;;;;;3.47;1.50;;;34.00;33.30;;;;;;5072935;28;19940;-89
2021/06/02 12:17:51;;;;;;;1.85;1.63;;;34.20;34.80;;;;;;5073433;28;20017;-89
2021/06/02 12:20:20;;;;;;;6.88;1.80;;;34.50;33.70;;;;;;5073675;28;20055;-84
2021/06/02 12:22:47;;;;;;;2.53;1.70;;;34.10;33.90;;;;;;5078042;28;20105;-85
2021/06/02 12:25:19;;;;;;;2.28;1.88;;;33.70;34.50;;;;;;5078724;28;20033;-84
2021/06/02 12:27:51;;;;;;;3.05;1.88;;;33.70;35.00;;;;;;5079065;28;20028;-85
2021/06/02 12:30:19;;;;;;;5.72;1.52;;;33.40;35.00;;;;;;5078399;28;20036;-87
2021/06/02 12:32:46;;;;;;;6.15;1.60;;;33.90;34.60;;;;;;5076929;28;20436;-88
2021/06/02 12:35:30;;;;;;;4.38;1.52;;;34.10;35.00;;;;;;5077235;28;20021;-88
2021/06/02 12:38:15;;;;;;;5.07;1.58;;;35.20;33.40;;;;;;5076649;28;20020;-87
2021/06/02 12:40:52;;;;;;;2.20;1.30;;;36.30;32.40;;;;;;5076891;28;20028;-87
2021/06/02 12:43:40;;;;;;;3.55;1.50;;;36.50;33.00;;;;;;5077294;28;20063;-90
2021/06/02 12:46:14;;;;;;;3.90;1.73;;;35.70;33.20;;;;;;5077267;28;20161;-87
2021/06/02 12:48:40;;;;;;;1.50;1.40;;;34.70;36.00;;;;;;5076801;28;20166;-87
2021/06/02 12:51:11;;;;;;;4.57;1.50;;;34.10;34.90;;;;;;5076994;28;20064;-88
2021/06/02 12:53:47;;;;;;;3.42;1.60;;;32.80;36.40;;;;;;5076536;28;20032;-88
2021/06/02 12:56:15;;;;;;;1.70;1.50;;;32.30;37.60;;;;;;5078492;28;20465;-88
2021/06/02 12:58:42;;;;;;;5.90;1.83;;;32.90;37.90;;;;;;5058705;28;20063;-88
2021/06/02 13:01:10;;;;;;;2.63;1.70;;;33.70;36.20;;;;;;5056600;28;20029;-88
2021/06/02 13:03:40;;;;;;;5.47;1.85;;;33.80;35.50;;;;;;5056389;28;20025;-88
2021/06/02 13:06:06;;;;;;;3.03;1.70;;;34.40;36.20;;;;;;5056144;28;20028;-87
2021/06/02 13:08:39;;;;;;;5.60;1.70;;;34.60;35.40;;;;;;5055955;28;20025;-87
2021/06/02 13:11:06;;;;;;;3.00;1.70;;;34.10;36.40;;;;;;5056035;28;20024;-87
2021/06/02 13:13:32;;;;;;;2.58;1.70;;;34.00;37.30;;;;;;5056181;28;20016;-87
2021/06/02 13:15:58;;;;;;;3.50;1.67;;;33.90;36.70;;;;;;5055838;28;20021;-87
2021/06/02 13:18:26;;;;;;;2.95;1.83;;;34.10;36.90;;;;;;5061595;28;20030;-87
2021/06/02 13:20:52;;;;;;;2.97;1.70;;;35.10;35.40;;;;;;5076712;28;20104;-87
2021/06/02 13:23:23;;;;;;;5.78;1.70;;;35.40;34.40;;;;;;5076139;28;20499;-88
2021/06/02 13:26:02;;;;;;;2.78;1.52;;;35.80;35.80;;;;;;5075448;28;20027;-88
2021/06/02 13:28:30;;;;;;;2.35;1.45;;;36.00;34.20;;;;;;5075868;28;20093;-88
2021/06/02 13:31:04;;;;;;;2.45;1.63;;;36.50;33.00;;;;;;5075180;28;20107;-88